aviador You're here:

GMTN Decoded Metar

TETOUAN in MOROCCO
Report Time2017-08-22 08:00:00
UTC Time2017-08-22 09:02:54
Flight Rules mvfr MVFR
Wind070° at 07 kt
W.Decomp.*RWY 06: 6.9 kt HW 1.3 kt RCW
W.Rank070° ranks 5
Current wind is below 070° avg. (7.4)
Visibility5000 m
Phenomena:N/A
Clouds:Scattered 006 Hf
Scattered 020 Hf
Expected CloudBase > 1,200 ft AGL from Temp-Dew spread
CeilingNone
Temp24°C (ISA +9)
Dew Point21°C (83% RH)
QNH1017 hPa
Density Alt1,276 ft
Elevation33 ft
Report Wrong Elevation
Raw Report
GMTN 220800Z 07007KT 5000 SCT006 SCT020 24/21 Q1017 NOSIG=

Extra information for GMTN:More info

Metar Taf Metar & Taf Last 4 Metars F.Rules Stats Wind Profile Meteogram Temp Stats Airport Information Weather charts Add Link Nearby VenuesMetar ALERT Operation Metar Decoded Social comments